sensor_id;sensor_type;location;lat;lon;timestamp;temperature;humidity
21353;DHT22;10834;52.268;6.770;2023-08-06T00:00:32;14.80;99.90
21353;DHT22;10834;52.268;6.770;2023-08-06T00:03:18;14.80;99.90
21353;DHT22;10834;52.268;6.770;2023-08-06T00:06:07;14.80;99.90
21353;DHT22;10834;52.268;6.770;2023-08-06T00:08:53;14.80;99.90
21353;DHT22;10834;52.268;6.770;2023-08-06T00:11:40;14.80;99.90
21353;DHT22;10834;52.268;6.770;2023-08-06T00:14:27;14.80;99.90
21353;DHT22;10834;52.268;6.770;2023-08-06T00:17:13;14.80;99.90
21353;DHT22;10834;52.268;6.770;2023-08-06T00:19:59;14.80;99.90
21353;DHT22;10834;52.268;6.770;2023-08-06T00:22:50;14.80;99.90
21353;DHT22;10834;52.268;6.770;2023-08-06T00:25:36;14.80;99.90
21353;DHT22;10834;52.268;6.770;2023-08-06T00:28:22;14.80;99.90
21353;DHT22;10834;52.268;6.770;2023-08-06T00:31:08;14.80;99.90
21353;DHT22;10834;52.268;6.770;2023-08-06T00:33:54;14.80;99.90
21353;DHT22;10834;52.268;6.770;2023-08-06T00:36:40;14.80;99.90
21353;DHT22;10834;52.268;6.770;2023-08-06T00:39:26;14.80;99.90
21353;DHT22;10834;52.268;6.770;2023-08-06T00:42:12;14.80;99.90
21353;DHT22;10834;52.268;6.770;2023-08-06T00:44:59;14.80;99.90
21353;DHT22;10834;52.268;6.770;2023-08-06T00:47:45;14.80;99.90
21353;DHT22;10834;52.268;6.770;2023-08-06T00:50:31;14.80;99.90
21353;DHT22;10834;52.268;6.770;2023-08-06T00:53:17;14.80;99.90
21353;DHT22;10834;52.268;6.770;2023-08-06T00:56:04;14.70;99.90
21353;DHT22;10834;52.268;6.770;2023-08-06T00:58:51;14.70;99.90
21353;DHT22;10834;52.268;6.770;2023-08-06T01:01:37;14.70;99.90
21353;DHT22;10834;52.268;6.770;2023-08-06T01:04:23;14.70;99.90
21353;DHT22;10834;52.268;6.770;2023-08-06T01:07:28;14.70;99.90
21353;DHT22;10834;52.268;6.770;2023-08-06T01:16:21;14.70;99.90
21353;DHT22;10834;52.268;6.770;2023-08-06T01:19:16;14.70;99.90
21353;DHT22;10834;52.268;6.770;2023-08-06T01:22:03;14.60;99.90
21353;DHT22;10834;52.268;6.770;2023-08-06T01:24:50;14.70;99.90
21353;DHT22;10834;52.268;6.770;2023-08-06T01:27:49;14.70;99.90
21353;DHT22;10834;52.268;6.770;2023-08-06T01:30:37;14.70;99.90
21353;DHT22;10834;52.268;6.770;2023-08-06T01:33:27;14.70;99.90
21353;DHT22;10834;52.268;6.770;2023-08-06T01:36:17;14.70;99.90
21353;DHT22;10834;52.268;6.770;2023-08-06T01:39:05;14.70;99.90
21353;DHT22;10834;52.268;6.770;2023-08-06T01:41:51;14.70;99.90
21353;DHT22;10834;52.268;6.770;2023-08-06T01:44:37;14.70;99.90
21353;DHT22;10834;52.268;6.770;2023-08-06T01:47:23;14.70;99.90
21353;DHT22;10834;52.268;6.770;2023-08-06T01:50:09;14.60;99.90
21353;DHT22;10834;52.268;6.770;2023-08-06T01:52:55;14.60;99.90
21353;DHT22;10834;52.268;6.770;2023-08-06T01:55:41;14.60;99.90
21353;DHT22;10834;52.268;6.770;2023-08-06T01:58:27;14.60;99.90
21353;DHT22;10834;52.268;6.770;2023-08-06T02:01:13;14.60;99.90
21353;DHT22;10834;52.268;6.770;2023-08-06T02:03:59;14.60;99.90
21353;DHT22;10834;52.268;6.770;2023-08-06T02:06:45;14.60;99.90
21353;DHT22;10834;52.268;6.770;2023-08-06T02:09:31;14.60;99.90
21353;DHT22;10834;52.268;6.770;2023-08-06T02:12:17;14.60;99.90
21353;DHT22;10834;52.268;6.770;2023-08-06T02:15:04;14.60;99.90
21353;DHT22;10834;52.268;6.770;2023-08-06T02:17:50;14.60;99.90
21353;DHT22;10834;52.268;6.770;2023-08-06T02:20:36;14.60;99.90
21353;DHT22;10834;52.268;6.770;2023-08-06T02:23:23;14.50;99.90
21353;DHT22;10834;52.268;6.770;2023-08-06T02:26:09;14.60;99.90
21353;DHT22;10834;52.268;6.770;2023-08-06T02:28:55;14.60;99.90
21353;DHT22;10834;52.268;6.770;2023-08-06T02:31:41;14.60;99.90
21353;DHT22;10834;52.268;6.770;2023-08-06T02:34:27;14.60;99.90
21353;DHT22;10834;52.268;6.770;2023-08-06T02:37:13;14.60;99.90
21353;DHT22;10834;52.268;6.770;2023-08-06T02:39:59;14.60;99.90
21353;DHT22;10834;52.268;6.770;2023-08-06T02:42:45;14.60;99.90
21353;DHT22;10834;52.268;6.770;2023-08-06T02:45:32;14.60;99.90
21353;DHT22;10834;52.268;6.770;2023-08-06T02:48:18;14.60;99.90
21353;DHT22;10834;52.268;6.770;2023-08-06T02:51:04;14.60;99.90
21353;DHT22;10834;52.268;6.770;2023-08-06T02:53:50;14.60;99.90
21353;DHT22;10834;52.268;6.770;2023-08-06T02:56:36;14.60;99.90
21353;DHT22;10834;52.268;6.770;2023-08-06T02:59:22;14.60;99.90
21353;DHT22;10834;52.268;6.770;2023-08-06T03:02:08;14.60;99.90
21353;DHT22;10834;52.268;6.770;2023-08-06T03:04:54;14.60;99.90
21353;DHT22;10834;52.268;6.770;2023-08-06T03:07:40;14.60;99.90
21353;DHT22;10834;52.268;6.770;2023-08-06T03:10:26;14.50;99.90
21353;DHT22;10834;52.268;6.770;2023-08-06T03:13:12;14.50;99.90
21353;DHT22;10834;52.268;6.770;2023-08-06T03:15:59;14.50;99.90
21353;DHT22;10834;52.268;6.770;2023-08-06T03:18:45;14.60;99.90
21353;DHT22;10834;52.268;6.770;2023-08-06T03:21:32;14.50;99.90
21353;DHT22;10834;52.268;6.770;2023-08-06T03:24:18;14.60;99.90
21353;DHT22;10834;52.268;6.770;2023-08-06T03:27:04;14.60;99.90
21353;DHT22;10834;52.268;6.770;2023-08-06T03:29:50;14.50;99.90
21353;DHT22;10834;52.268;6.770;2023-08-06T03:32:36;14.50;99.90
21353;DHT22;10834;52.268;6.770;2023-08-06T03:35:22;14.60;99.90
21353;DHT22;10834;52.268;6.770;2023-08-06T03:38:08;14.50;99.90
21353;DHT22;10834;52.268;6.770;2023-08-06T03:40:54;14.60;99.90
21353;DHT22;10834;52.268;6.770;2023-08-06T03:43:40;14.60;99.90
21353;DHT22;10834;52.268;6.770;2023-08-06T03:46:26;14.50;99.90
21353;DHT22;10834;52.268;6.770;2023-08-06T03:49:12;14.60;99.90
21353;DHT22;10834;52.268;6.770;2023-08-06T03:51:58;14.60;99.90
21353;DHT22;10834;52.268;6.770;2023-08-06T03:54:44;14.60;99.90
21353;DHT22;10834;52.268;6.770;2023-08-06T03:57:30;14.60;99.90
21353;DHT22;10834;52.268;6.770;2023-08-06T04:00:17;14.60;99.90
21353;DHT22;10834;52.268;6.770;2023-08-06T04:03:03;14.60;99.90
21353;DHT22;10834;52.268;6.770;2023-08-06T04:05:49;14.60;99.90
21353;DHT22;10834;52.268;6.770;2023-08-06T04:08:35;14.60;99.90
21353;DHT22;10834;52.268;6.770;2023-08-06T04:11:21;14.60;99.90
21353;DHT22;10834;52.268;6.770;2023-08-06T04:14:07;14.60;99.90
21353;DHT22;10834;52.268;6.770;2023-08-06T04:16:53;14.60;99.90
21353;DHT22;10834;52.268;6.770;2023-08-06T04:19:39;14.60;99.90
21353;DHT22;10834;52.268;6.770;2023-08-06T04:22:25;14.60;99.90
21353;DHT22;10834;52.268;6.770;2023-08-06T04:25:11;14.60;99.90
21353;DHT22;10834;52.268;6.770;2023-08-06T04:27:57;14.60;99.90
21353;DHT22;10834;52.268;6.770;2023-08-06T04:30:43;14.60;99.90
21353;DHT22;10834;52.268;6.770;2023-08-06T04:33:29;14.60;99.90
21353;DHT22;10834;52.268;6.770;2023-08-06T04:36:15;14.60;99.90
21353;DHT22;10834;52.268;6.770;2023-08-06T04:39:01;14.60;99.90
21353;DHT22;10834;52.268;6.770;2023-08-06T04:41:48;14.60;99.90
21353;DHT22;10834;52.268;6.770;2023-08-06T04:44:34;14.60;99.90
21353;DHT22;10834;52.268;6.770;2023-08-06T04:47:20;14.70;99.90
21353;DHT22;10834;52.268;6.770;2023-08-06T04:50:06;14.70;99.90
21353;DHT22;10834;52.268;6.770;2023-08-06T04:52:52;14.70;99.90
21353;DHT22;10834;52.268;6.770;2023-08-06T04:55:38;14.70;99.90
21353;DHT22;10834;52.268;6.770;2023-08-06T04:58:24;14.80;99.90
21353;DHT22;10834;52.268;6.770;2023-08-06T05:01:11;14.80;99.90
21353;DHT22;10834;52.268;6.770;2023-08-06T05:03:57;14.80;99.90
21353;DHT22;10834;52.268;6.770;2023-08-06T05:06:43;14.80;99.90
21353;DHT22;10834;52.268;6.770;2023-08-06T05:09:29;14.80;99.90
21353;DHT22;10834;52.268;6.770;2023-08-06T05:12:16;14.90;99.90
21353;DHT22;10834;52.268;6.770;2023-08-06T05:15:02;14.90;99.90
21353;DHT22;10834;52.268;6.770;2023-08-06T05:17:48;14.90;99.90
21353;DHT22;10834;52.268;6.770;2023-08-06T05:20:39;14.90;99.90
21353;DHT22;10834;52.268;6.770;2023-08-06T05:23:26;15.00;99.90
21353;DHT22;10834;52.268;6.770;2023-08-06T05:26:12;15.00;99.90
21353;DHT22;10834;52.268;6.770;2023-08-06T05:29:01;15.10;99.90
21353;DHT22;10834;52.268;6.770;2023-08-06T05:31:47;15.10;99.90
21353;DHT22;10834;52.268;6.770;2023-08-06T05:34:33;15.10;99.90
21353;DHT22;10834;52.268;6.770;2023-08-06T05:37:19;15.10;99.90
21353;DHT22;10834;52.268;6.770;2023-08-06T05:40:05;15.20;99.90
21353;DHT22;10834;52.268;6.770;2023-08-06T05:42:54;15.20;99.90
21353;DHT22;10834;52.268;6.770;2023-08-06T05:45:45;15.20;99.90
21353;DHT22;10834;52.268;6.770;2023-08-06T05:48:32;15.30;99.90
21353;DHT22;10834;52.268;6.770;2023-08-06T05:51:18;15.30;99.90
21353;DHT22;10834;52.268;6.770;2023-08-06T05:54:05;15.40;99.90
21353;DHT22;10834;52.268;6.770;2023-08-06T05:56:51;15.40;99.90
21353;DHT22;10834;52.268;6.770;2023-08-06T05:59:37;15.50;99.90
21353;DHT22;10834;52.268;6.770;2023-08-06T06:02:23;15.60;99.90
21353;DHT22;10834;52.268;6.770;2023-08-06T06:05:08;15.70;99.90
21353;DHT22;10834;52.268;6.770;2023-08-06T06:07:55;15.80;99.90
21353;DHT22;10834;52.268;6.770;2023-08-06T06:10:41;15.90;99.90
21353;DHT22;10834;52.268;6.770;2023-08-06T06:13:27;16.00;99.90
21353;DHT22;10834;52.268;6.770;2023-08-06T06:16:13;16.10;99.90
21353;DHT22;10834;52.268;6.770;2023-08-06T06:18:59;16.20;99.90
21353;DHT22;10834;52.268;6.770;2023-08-06T06:21:45;16.30;99.90
21353;DHT22;10834;52.268;6.770;2023-08-06T06:24:30;16.30;99.90
21353;DHT22;10834;52.268;6.770;2023-08-06T06:27:17;16.40;99.90
21353;DHT22;10834;52.268;6.770;2023-08-06T06:30:03;16.40;99.90
21353;DHT22;10834;52.268;6.770;2023-08-06T06:32:49;16.40;99.90
21353;DHT22;10834;52.268;6.770;2023-08-06T06:35:36;16.40;99.90
21353;DHT22;10834;52.268;6.770;2023-08-06T06:38:22;16.50;99.90
21353;DHT22;10834;52.268;6.770;2023-08-06T06:41:08;16.60;99.90
21353;DHT22;10834;52.268;6.770;2023-08-06T06:43:54;16.70;99.90
21353;DHT22;10834;52.268;6.770;2023-08-06T06:46:41;16.80;99.90
21353;DHT22;10834;52.268;6.770;2023-08-06T06:49:27;16.80;99.90
21353;DHT22;10834;52.268;6.770;2023-08-06T06:52:13;16.80;99.90
21353;DHT22;10834;52.268;6.770;2023-08-06T06:54:59;16.90;99.90
21353;DHT22;10834;52.268;6.770;2023-08-06T06:57:45;17.00;99.90
21353;DHT22;10834;52.268;6.770;2023-08-06T07:00:31;17.00;99.90
21353;DHT22;10834;52.268;6.770;2023-08-06T07:03:17;17.20;99.90
21353;DHT22;10834;52.268;6.770;2023-08-06T07:06:03;17.50;99.90
21353;DHT22;10834;52.268;6.770;2023-08-06T07:08:51;17.60;99.90
21353;DHT22;10834;52.268;6.770;2023-08-06T07:11:37;17.60;99.90
21353;DHT22;10834;52.268;6.770;2023-08-06T07:14:25;17.70;99.90
21353;DHT22;10834;52.268;6.770;2023-08-06T07:17:11;17.70;99.90
21353;DHT22;10834;52.268;6.770;2023-08-06T07:19:58;17.60;99.90
21353;DHT22;10834;52.268;6.770;2023-08-06T07:22:44;17.70;99.90
21353;DHT22;10834;52.268;6.770;2023-08-06T07:25:30;17.60;99.90
21353;DHT22;10834;52.268;6.770;2023-08-06T07:28:16;17.60;99.90
21353;DHT22;10834;52.268;6.770;2023-08-06T07:31:03;17.60;99.90
21353;DHT22;10834;52.268;6.770;2023-08-06T07:33:49;17.50;99.90
21353;DHT22;10834;52.268;6.770;2023-08-06T07:36:35;17.50;99.90
21353;DHT22;10834;52.268;6.770;2023-08-06T07:39:21;17.50;99.90
21353;DHT22;10834;52.268;6.770;2023-08-06T07:42:08;17.50;99.90
21353;DHT22;10834;52.268;6.770;2023-08-06T07:44:58;17.50;99.90
21353;DHT22;10834;52.268;6.770;2023-08-06T07:47:44;17.50;99.90
21353;DHT22;10834;52.268;6.770;2023-08-06T07:50:31;17.50;99.90
21353;DHT22;10834;52.268;6.770;2023-08-06T07:53:17;17.60;99.90
21353;DHT22;10834;52.268;6.770;2023-08-06T07:56:03;17.60;99.90
21353;DHT22;10834;52.268;6.770;2023-08-06T07:58:49;17.70;99.90
21353;DHT22;10834;52.268;6.770;2023-08-06T08:01:35;17.60;99.90
21353;DHT22;10834;52.268;6.770;2023-08-06T08:04:21;17.60;99.90
21353;DHT22;10834;52.268;6.770;2023-08-06T08:07:09;17.60;99.90
21353;DHT22;10834;52.268;6.770;2023-08-06T08:09:56;17.60;99.90
21353;DHT22;10834;52.268;6.770;2023-08-06T08:12:42;17.50;99.90
21353;DHT22;10834;52.268;6.770;2023-08-06T08:15:29;17.50;99.90
21353;DHT22;10834;52.268;6.770;2023-08-06T08:18:15;17.50;99.90
21353;DHT22;10834;52.268;6.770;2023-08-06T08:21:01;17.50;99.90
21353;DHT22;10834;52.268;6.770;2023-08-06T08:23:47;17.60;99.90
21353;DHT22;10834;52.268;6.770;2023-08-06T08:26:33;17.80;99.90
21353;DHT22;10834;52.268;6.770;2023-08-06T08:29:20;17.90;99.90
21353;DHT22;10834;52.268;6.770;2023-08-06T08:32:06;18.20;99.90
21353;DHT22;10834;52.268;6.770;2023-08-06T08:34:52;18.70;99.90
21353;DHT22;10834;52.268;6.770;2023-08-06T08:37:39;19.20;99.90
21353;DHT22;10834;52.268;6.770;2023-08-06T08:40:31;19.50;99.90
21353;DHT22;10834;52.268;6.770;2023-08-06T08:43:23;19.90;99.90
21353;DHT22;10834;52.268;6.770;2023-08-06T08:46:09;20.30;99.90
21353;DHT22;10834;52.268;6.770;2023-08-06T08:48:59;20.50;99.90
21353;DHT22;10834;52.268;6.770;2023-08-06T08:51:46;20.50;99.90
21353;DHT22;10834;52.268;6.770;2023-08-06T08:54:33;20.40;99.90
21353;DHT22;10834;52.268;6.770;2023-08-06T08:57:20;20.10;99.90
21353;DHT22;10834;52.268;6.770;2023-08-06T09:00:07;20.00;99.90
21353;DHT22;10834;52.268;6.770;2023-08-06T09:02:53;20.10;99.90
21353;DHT22;10834;52.268;6.770;2023-08-06T09:05:44;20.20;99.90
21353;DHT22;10834;52.268;6.770;2023-08-06T09:08:36;20.40;99.90
21353;DHT22;10834;52.268;6.770;2023-08-06T09:11:23;20.50;99.90
21353;DHT22;10834;52.268;6.770;2023-08-06T09:14:11;20.60;99.90
21353;DHT22;10834;52.268;6.770;2023-08-06T09:16:57;20.50;99.90
21353;DHT22;10834;52.268;6.770;2023-08-06T09:19:44;20.70;99.90
21353;DHT22;10834;52.268;6.770;2023-08-06T09:22:34;20.70;99.90
21353;DHT22;10834;52.268;6.770;2023-08-06T09:25:24;20.80;99.90
21353;DHT22;10834;52.268;6.770;2023-08-06T09:28:11;20.70;99.90
21353;DHT22;10834;52.268;6.770;2023-08-06T09:30:59;20.70;99.90
21353;DHT22;10834;52.268;6.770;2023-08-06T09:33:47;21.10;99.90
21353;DHT22;10834;52.268;6.770;2023-08-06T09:36:40;21.80;99.90
21353;DHT22;10834;52.268;6.770;2023-08-06T09:39:31;22.10;99.90
21353;DHT22;10834;52.268;6.770;2023-08-06T09:42:17;22.40;99.90
21353;DHT22;10834;52.268;6.770;2023-08-06T09:45:06;22.50;99.90
21353;DHT22;10834;52.268;6.770;2023-08-06T09:47:56;22.70;99.90
21353;DHT22;10834;52.268;6.770;2023-08-06T09:50:42;22.80;99.90
21353;DHT22;10834;52.268;6.770;2023-08-06T09:53:29;23.00;99.90
21353;DHT22;10834;52.268;6.770;2023-08-06T09:56:15;23.00;99.90
21353;DHT22;10834;52.268;6.770;2023-08-06T09:59:04;22.90;99.90
21353;DHT22;10834;52.268;6.770;2023-08-06T10:01:53;22.90;99.90
21353;DHT22;10834;52.268;6.770;2023-08-06T10:04:40;22.80;99.90
21353;DHT22;10834;52.268;6.770;2023-08-06T10:07:29;23.00;99.90
21353;DHT22;10834;52.268;6.770;2023-08-06T10:10:16;23.40;99.90
21353;DHT22;10834;52.268;6.770;2023-08-06T10:13:03;24.20;99.90
21353;DHT22;10834;52.268;6.770;2023-08-06T10:15:50;24.70;99.90
21353;DHT22;10834;52.268;6.770;2023-08-06T10:18:38;24.70;99.90
21353;DHT22;10834;52.268;6.770;2023-08-06T10:21:24;25.90;99.90
21353;DHT22;10834;52.268;6.770;2023-08-06T10:24:14;25.60;99.90
21353;DHT22;10834;52.268;6.770;2023-08-06T10:27:00;24.80;99.90
21353;DHT22;10834;52.268;6.770;2023-08-06T10:29:46;24.10;99.90
21353;DHT22;10834;52.268;6.770;2023-08-06T10:32:48;23.30;99.90
21353;DHT22;10834;52.268;6.770;2023-08-06T10:35:44;22.70;99.90
21353;DHT22;10834;52.268;6.770;2023-08-06T10:38:30;22.20;99.90
21353;DHT22;10834;52.268;6.770;2023-08-06T10:41:27;21.80;99.90
21353;DHT22;10834;52.268;6.770;2023-08-06T10:44:14;21.50;99.90
21353;DHT22;10834;52.268;6.770;2023-08-06T10:47:26;21.30;99.90
21353;DHT22;10834;52.268;6.770;2023-08-06T10:50:16;21.20;99.90
21353;DHT22;10834;52.268;6.770;2023-08-06T10:53:04;21.10;99.90
21353;DHT22;10834;52.268;6.770;2023-08-06T10:55:52;21.00;99.90
21353;DHT22;10834;52.268;6.770;2023-08-06T10:58:38;21.30;99.90
21353;DHT22;10834;52.268;6.770;2023-08-06T11:01:24;21.90;99.90
21353;DHT22;10834;52.268;6.770;2023-08-06T11:04:10;22.10;99.90
21353;DHT22;10834;52.268;6.770;2023-08-06T11:07:01;22.70;99.90
21353;DHT22;10834;52.268;6.770;2023-08-06T11:09:50;23.70;99.90
21353;DHT22;10834;52.268;6.770;2023-08-06T11:12:37;24.30;99.90
21353;DHT22;10834;52.268;6.770;2023-08-06T11:15:23;25.00;99.90
21353;DHT22;10834;52.268;6.770;2023-08-06T11:18:09;25.50;99.90
21353;DHT22;10834;52.268;6.770;2023-08-06T11:20:59;26.00;99.90
21353;DHT22;10834;52.268;6.770;2023-08-06T11:23:45;26.10;99.90
21353;DHT22;10834;52.268;6.770;2023-08-06T11:26:31;25.90;99.90
21353;DHT22;10834;52.268;6.770;2023-08-06T11:29:17;25.40;99.90
21353;DHT22;10834;52.268;6.770;2023-08-06T11:32:04;24.80;99.90
21353;DHT22;10834;52.268;6.770;2023-08-06T11:34:52;24.30;99.90
21353;DHT22;10834;52.268;6.770;2023-08-06T11:37:43;24.40;99.90
21353;DHT22;10834;52.268;6.770;2023-08-06T11:40:31;24.40;99.90
21353;DHT22;10834;52.268;6.770;2023-08-06T11:43:19;24.20;99.90
21353;DHT22;10834;52.268;6.770;2023-08-06T11:46:06;24.30;99.90
21353;DHT22;10834;52.268;6.770;2023-08-06T11:48:56;24.70;99.90
21353;DHT22;10834;52.268;6.770;2023-08-06T11:51:45;25.30;99.90
21353;DHT22;10834;52.268;6.770;2023-08-06T11:54:31;25.50;99.90
21353;DHT22;10834;52.268;6.770;2023-08-06T11:57:20;25.40;99.90
21353;DHT22;10834;52.268;6.770;2023-08-06T12:00:13;25.30;99.90
21353;DHT22;10834;52.268;6.770;2023-08-06T12:02:59;24.90;99.90
21353;DHT22;10834;52.268;6.770;2023-08-06T12:05:45;24.60;99.90
21353;DHT22;10834;52.268;6.770;2023-08-06T12:08:33;24.90;99.90
21353;DHT22;10834;52.268;6.770;2023-08-06T12:11:21;25.30;99.90
21353;DHT22;10834;52.268;6.770;2023-08-06T12:14:07;25.70;99.90
21353;DHT22;10834;52.268;6.770;2023-08-06T12:16:53;26.00;99.90
21353;DHT22;10834;52.268;6.770;2023-08-06T12:19:39;26.20;99.90
21353;DHT22;10834;52.268;6.770;2023-08-06T12:22:25;26.10;99.90
21353;DHT22;10834;52.268;6.770;2023-08-06T12:25:12;25.90;99.90
21353;DHT22;10834;52.268;6.770;2023-08-06T12:27:58;25.50;99.90
21353;DHT22;10834;52.268;6.770;2023-08-06T12:30:44;25.00;99.90
21353;DHT22;10834;52.268;6.770;2023-08-06T12:33:31;24.50;99.90
21353;DHT22;10834;52.268;6.770;2023-08-06T12:36:17;24.00;99.90
21353;DHT22;10834;52.268;6.770;2023-08-06T12:39:03;23.60;99.90
21353;DHT22;10834;52.268;6.770;2023-08-06T12:41:49;23.40;99.90
21353;DHT22;10834;52.268;6.770;2023-08-06T12:44:36;23.20;99.90
21353;DHT22;10834;52.268;6.770;2023-08-06T12:47:22;23.10;99.90
21353;DHT22;10834;52.268;6.770;2023-08-06T12:50:08;23.00;99.90
21353;DHT22;10834;52.268;6.770;2023-08-06T12:52:54;22.90;99.90
21353;DHT22;10834;52.268;6.770;2023-08-06T12:55:41;22.80;99.90
21353;DHT22;10834;52.268;6.770;2023-08-06T12:58:27;22.80;99.90
21353;DHT22;10834;52.268;6.770;2023-08-06T13:01:13;22.70;99.90
21353;DHT22;10834;52.268;6.770;2023-08-06T13:04:00;22.70;99.90
21353;DHT22;10834;52.268;6.770;2023-08-06T13:06:46;22.70;99.90
21353;DHT22;10834;52.268;6.770;2023-08-06T13:09:33;22.60;99.90
21353;DHT22;10834;52.268;6.770;2023-08-06T13:12:19;22.40;99.90
21353;DHT22;10834;52.268;6.770;2023-08-06T13:15:08;22.20;99.90
21353;DHT22;10834;52.268;6.770;2023-08-06T13:17:55;22.00;99.90
21353;DHT22;10834;52.268;6.770;2023-08-06T13:20:41;21.80;99.90
21353;DHT22;10834;52.268;6.770;2023-08-06T13:23:27;21.60;99.90
21353;DHT22;10834;52.268;6.770;2023-08-06T13:26:13;21.50;99.90
21353;DHT22;10834;52.268;6.770;2023-08-06T13:29:02;21.40;99.90
21353;DHT22;10834;52.268;6.770;2023-08-06T13:31:48;21.50;99.90
21353;DHT22;10834;52.268;6.770;2023-08-06T13:34:34;21.60;99.90
21353;DHT22;10834;52.268;6.770;2023-08-06T13:37:20;21.60;99.90
21353;DHT22;10834;52.268;6.770;2023-08-06T13:40:07;21.80;99.90
21353;DHT22;10834;52.268;6.770;2023-08-06T13:42:54;21.80;99.90
21353;DHT22;10834;52.268;6.770;2023-08-06T13:45:40;21.90;99.90
21353;DHT22;10834;52.268;6.770;2023-08-06T13:48:26;22.10;99.90
21353;DHT22;10834;52.268;6.770;2023-08-06T13:51:13;22.40;99.90
21353;DHT22;10834;52.268;6.770;2023-08-06T13:53:59;22.70;99.90
21353;DHT22;10834;52.268;6.770;2023-08-06T13:56:45;22.80;99.90
21353;DHT22;10834;52.268;6.770;2023-08-06T13:59:31;22.70;99.90
21353;DHT22;10834;52.268;6.770;2023-08-06T14:02:18;22.50;99.90
21353;DHT22;10834;52.268;6.770;2023-08-06T14:05:05;22.30;99.90
21353;DHT22;10834;52.268;6.770;2023-08-06T14:07:51;22.10;99.90
21353;DHT22;10834;52.268;6.770;2023-08-06T14:10:37;21.90;99.90
21353;DHT22;10834;52.268;6.770;2023-08-06T14:13:23;21.70;99.90
21353;DHT22;10834;52.268;6.770;2023-08-06T14:16:09;21.50;99.90
21353;DHT22;10834;52.268;6.770;2023-08-06T14:18:55;21.30;99.90
21353;DHT22;10834;52.268;6.770;2023-08-06T14:21:41;21.10;99.90
21353;DHT22;10834;52.268;6.770;2023-08-06T14:24:28;20.90;99.90
21353;DHT22;10834;52.268;6.770;2023-08-06T14:27:14;20.60;99.90
21353;DHT22;10834;52.268;6.770;2023-08-06T14:30:00;20.30;99.90
21353;DHT22;10834;52.268;6.770;2023-08-06T14:32:48;20.10;99.90
21353;DHT22;10834;52.268;6.770;2023-08-06T14:35:34;19.70;99.90
21353;DHT22;10834;52.268;6.770;2023-08-06T14:38:20;19.30;99.90
21353;DHT22;10834;52.268;6.770;2023-08-06T14:41:06;18.80;99.90
21353;DHT22;10834;52.268;6.770;2023-08-06T14:43:52;18.20;99.90
21353;DHT22;10834;52.268;6.770;2023-08-06T14:46:39;17.70;99.90
21353;DHT22;10834;52.268;6.770;2023-08-06T14:49:25;17.20;99.90
21353;DHT22;10834;52.268;6.770;2023-08-06T14:52:11;16.80;99.90
21353;DHT22;10834;52.268;6.770;2023-08-06T14:54:57;16.70;99.90
21353;DHT22;10834;52.268;6.770;2023-08-06T14:57:43;16.60;99.90
21353;DHT22;10834;52.268;6.770;2023-08-06T15:00:29;16.50;99.90
21353;DHT22;10834;52.268;6.770;2023-08-06T15:03:15;16.50;99.90
21353;DHT22;10834;52.268;6.770;2023-08-06T15:06:01;16.40;99.90
21353;DHT22;10834;52.268;6.770;2023-08-06T15:08:47;16.40;99.90
21353;DHT22;10834;52.268;6.770;2023-08-06T15:11:34;16.40;99.90
21353;DHT22;10834;52.268;6.770;2023-08-06T15:14:20;16.40;99.90
21353;DHT22;10834;52.268;6.770;2023-08-06T15:17:06;16.40;99.90
21353;DHT22;10834;52.268;6.770;2023-08-06T15:19:52;16.40;99.90
21353;DHT22;10834;52.268;6.770;2023-08-06T15:22:38;16.40;99.90
21353;DHT22;10834;52.268;6.770;2023-08-06T15:25:24;16.30;99.90
21353;DHT22;10834;52.268;6.770;2023-08-06T15:28:10;16.40;99.90
21353;DHT22;10834;52.268;6.770;2023-08-06T15:30:56;16.40;99.90
21353;DHT22;10834;52.268;6.770;2023-08-06T15:33:42;16.30;99.90
21353;DHT22;10834;52.268;6.770;2023-08-06T15:36:28;16.40;99.90
21353;DHT22;10834;52.268;6.770;2023-08-06T15:39:15;16.40;99.90
21353;DHT22;10834;52.268;6.770;2023-08-06T15:42:01;16.40;99.90
21353;DHT22;10834;52.268;6.770;2023-08-06T15:44:47;16.40;99.90
21353;DHT22;10834;52.268;6.770;2023-08-06T15:47:33;16.40;99.90
21353;DHT22;10834;52.268;6.770;2023-08-06T15:50:26;16.50;99.90
21353;DHT22;10834;52.268;6.770;2023-08-06T15:53:12;16.50;99.90
21353;DHT22;10834;52.268;6.770;2023-08-06T15:55:58;16.50;99.90
21353;DHT22;10834;52.268;6.770;2023-08-06T15:58:44;16.60;99.90
21353;DHT22;10834;52.268;6.770;2023-08-06T16:01:30;16.60;99.90
21353;DHT22;10834;52.268;6.770;2023-08-06T16:04:16;16.60;99.90
21353;DHT22;10834;52.268;6.770;2023-08-06T16:07:02;16.60;99.90
21353;DHT22;10834;52.268;6.770;2023-08-06T16:09:49;16.60;99.90
21353;DHT22;10834;52.268;6.770;2023-08-06T16:12:36;16.60;99.90
21353;DHT22;10834;52.268;6.770;2023-08-06T16:15:22;16.60;99.90
21353;DHT22;10834;52.268;6.770;2023-08-06T16:18:08;16.50;99.90
21353;DHT22;10834;52.268;6.770;2023-08-06T16:20:54;16.50;99.90
21353;DHT22;10834;52.268;6.770;2023-08-06T16:23:40;16.40;99.90
21353;DHT22;10834;52.268;6.770;2023-08-06T16:26:26;16.40;99.90
21353;DHT22;10834;52.268;6.770;2023-08-06T16:29:12;16.40;99.90
21353;DHT22;10834;52.268;6.770;2023-08-06T16:31:58;16.40;99.90
21353;DHT22;10834;52.268;6.770;2023-08-06T16:34:45;16.40;99.90
21353;DHT22;10834;52.268;6.770;2023-08-06T16:37:32;16.40;99.90
21353;DHT22;10834;52.268;6.770;2023-08-06T16:40:18;16.40;99.90
21353;DHT22;10834;52.268;6.770;2023-08-06T16:43:04;16.40;99.90
21353;DHT22;10834;52.268;6.770;2023-08-06T16:45:52;16.30;99.90
21353;DHT22;10834;52.268;6.770;2023-08-06T16:48:39;16.30;99.90
21353;DHT22;10834;52.268;6.770;2023-08-06T16:51:26;16.30;99.90
21353;DHT22;10834;52.268;6.770;2023-08-06T16:54:12;16.30;99.90
21353;DHT22;10834;52.268;6.770;2023-08-06T16:56:58;16.20;99.90
21353;DHT22;10834;52.268;6.770;2023-08-06T16:59:46;16.20;99.90
21353;DHT22;10834;52.268;6.770;2023-08-06T17:02:32;16.20;99.90
21353;DHT22;10834;52.268;6.770;2023-08-06T17:05:18;16.20;99.90
21353;DHT22;10834;52.268;6.770;2023-08-06T17:08:04;16.20;99.90
21353;DHT22;10834;52.268;6.770;2023-08-06T17:10:51;16.20;99.90
21353;DHT22;10834;52.268;6.770;2023-08-06T17:13:37;16.20;99.90
21353;DHT22;10834;52.268;6.770;2023-08-06T17:16:23;16.20;99.90
21353;DHT22;10834;52.268;6.770;2023-08-06T17:19:09;16.20;99.90
21353;DHT22;10834;52.268;6.770;2023-08-06T17:21:55;16.20;99.90
21353;DHT22;10834;52.268;6.770;2023-08-06T17:24:41;16.20;99.90
21353;DHT22;10834;52.268;6.770;2023-08-06T17:27:27;16.20;99.90
21353;DHT22;10834;52.268;6.770;2023-08-06T17:30:13;16.20;99.90
21353;DHT22;10834;52.268;6.770;2023-08-06T17:32:59;16.20;99.90
21353;DHT22;10834;52.268;6.770;2023-08-06T17:35:45;16.20;99.90
21353;DHT22;10834;52.268;6.770;2023-08-06T17:38:31;16.20;99.90